sensor_id;sensor_type;location;lat;lon;timestamp;P1;durP1;ratioP1;P2;durP2;ratioP2
27580;SDS011;63557;52.302;7.964;2023-05-10T00:02:17;22.20;;;16.27;;
27580;SDS011;63557;52.302;7.964;2023-05-10T00:07:17;22.20;;;15.23;;
27580;SDS011;63557;52.302;7.964;2023-05-10T00:12:18;18.92;;;14.55;;
27580;SDS011;63557;52.302;7.964;2023-05-10T00:17:18;21.20;;;15.65;;
27580;SDS011;63557;52.302;7.964;2023-05-10T00:22:18;22.57;;;15.07;;
27580;SDS011;63557;52.302;7.964;2023-05-10T00:27:19;19.53;;;14.63;;
27580;SDS011;63557;52.302;7.964;2023-05-10T00:32:19;17.73;;;13.35;;
27580;SDS011;63557;52.302;7.964;2023-05-10T00:37:20;19.33;;;13.45;;
27580;SDS011;63557;52.302;7.964;2023-05-10T00:42:20;15.27;;;12.07;;
27580;SDS011;63557;52.302;7.964;2023-05-10T00:47:22;17.90;;;14.00;;
27580;SDS011;63557;52.302;7.964;2023-05-10T00:52:22;19.05;;;12.98;;
27580;SDS011;63557;52.302;7.964;2023-05-10T00:57:23;21.15;;;14.20;;
27580;SDS011;63557;52.302;7.964;2023-05-10T01:02:24;18.42;;;13.68;;
27580;SDS011;63557;52.302;7.964;2023-05-10T01:07:24;20.40;;;14.05;;
27580;SDS011;63557;52.302;7.964;2023-05-10T01:12:25;18.17;;;14.63;;
27580;SDS011;63557;52.302;7.964;2023-05-10T01:17:26;20.52;;;14.82;;
27580;SDS011;63557;52.302;7.964;2023-05-10T01:37:46;18.33;;;14.48;;
27580;SDS011;63557;52.302;7.964;2023-05-10T01:42:51;10.23;;;8.57;;
27580;SDS011;63557;52.302;7.964;2023-05-10T01:47:54;8.23;;;6.22;;
27580;SDS011;63557;52.302;7.964;2023-05-10T01:52:57;8.60;;;6.65;;
27580;SDS011;63557;52.302;7.964;2023-05-10T01:58:01;9.98;;;6.35;;
27580;SDS011;63557;52.302;7.964;2023-05-10T02:03:04;8.70;;;6.43;;
27580;SDS011;63557;52.302;7.964;2023-05-10T02:08:06;7.78;;;5.82;;
27580;SDS011;63557;52.302;7.964;2023-05-10T02:13:07;5.72;;;5.15;;
27580;SDS011;63557;52.302;7.964;2023-05-10T02:18:07;9.07;;;5.68;;
27580;SDS011;63557;52.302;7.964;2023-05-10T02:23:09;6.93;;;5.32;;
27580;SDS011;63557;52.302;7.964;2023-05-10T02:28:09;8.13;;;6.53;;
27580;SDS011;63557;52.302;7.964;2023-05-10T02:33:11;9.88;;;7.10;;
27580;SDS011;63557;52.302;7.964;2023-05-10T02:38:11;9.45;;;6.88;;
27580;SDS011;63557;52.302;7.964;2023-05-10T02:43:14;10.98;;;7.30;;
27580;SDS011;63557;52.302;7.964;2023-05-10T02:48:16;5.32;;;4.82;;
27580;SDS011;63557;52.302;7.964;2023-05-10T02:53:18;5.15;;;3.97;;
27580;SDS011;63557;52.302;7.964;2023-05-10T02:58:21;3.55;;;3.05;;
27580;SDS011;63557;52.302;7.964;2023-05-10T03:03:21;3.70;;;2.97;;
27580;SDS011;63557;52.302;7.964;2023-05-10T03:08:23;4.90;;;3.00;;
27580;SDS011;63557;52.302;7.964;2023-05-10T03:13:29;5.85;;;3.47;;
27580;SDS011;63557;52.302;7.964;2023-05-10T03:18:35;5.70;;;5.10;;
27580;SDS011;63557;52.302;7.964;2023-05-10T03:23:43;7.95;;;6.82;;
27580;SDS011;63557;52.302;7.964;2023-05-10T03:28:44;11.10;;;8.93;;
27580;SDS011;63557;52.302;7.964;2023-05-10T03:33:49;16.55;;;11.77;;
27580;SDS011;63557;52.302;7.964;2023-05-10T03:38:55;16.27;;;12.88;;
27580;SDS011;63557;52.302;7.964;2023-05-10T03:43:55;21.47;;;15.13;;
27580;SDS011;63557;52.302;7.964;2023-05-10T03:48:56;16.27;;;13.30;;
27580;SDS011;63557;52.302;7.964;2023-05-10T03:53:56;22.05;;;15.50;;
27580;SDS011;63557;52.302;7.964;2023-05-10T03:58:57;21.10;;;15.38;;
27580;SDS011;63557;52.302;7.964;2023-05-10T04:03:57;21.75;;;15.23;;
27580;SDS011;63557;52.302;7.964;2023-05-10T04:08:57;21.57;;;16.07;;
27580;SDS011;63557;52.302;7.964;2023-05-10T04:14:00;21.88;;;15.95;;
27580;SDS011;63557;52.302;7.964;2023-05-10T04:19:00;26.17;;;16.17;;
27580;SDS011;63557;52.302;7.964;2023-05-10T04:24:00;19.20;;;13.98;;
27580;SDS011;63557;52.302;7.964;2023-05-10T04:29:01;26.87;;;13.43;;
27580;SDS011;63557;52.302;7.964;2023-05-10T04:34:01;18.58;;;13.15;;
27580;SDS011;63557;52.302;7.964;2023-05-10T04:39:02;16.83;;;12.27;;
27580;SDS011;63557;52.302;7.964;2023-05-10T04:44:03;21.65;;;13.02;;
27580;SDS011;63557;52.302;7.964;2023-05-10T04:49:03;16.80;;;11.90;;
27580;SDS011;63557;52.302;7.964;2023-05-10T04:54:03;15.47;;;11.23;;
27580;SDS011;63557;52.302;7.964;2023-05-10T04:59:04;13.23;;;10.47;;
27580;SDS011;63557;52.302;7.964;2023-05-10T05:04:04;16.23;;;9.60;;
27580;SDS011;63557;52.302;7.964;2023-05-10T05:09:05;14.00;;;10.57;;
27580;SDS011;63557;52.302;7.964;2023-05-10T05:14:05;17.57;;;9.73;;
27580;SDS011;63557;52.302;7.964;2023-05-10T05:19:05;13.37;;;9.43;;
27580;SDS011;63557;52.302;7.964;2023-05-10T05:24:06;15.87;;;10.20;;
27580;SDS011;63557;52.302;7.964;2023-05-10T05:29:06;14.57;;;10.23;;
27580;SDS011;63557;52.302;7.964;2023-05-10T05:34:07;15.43;;;10.60;;
27580;SDS011;63557;52.302;7.964;2023-05-10T05:39:07;14.20;;;11.13;;
27580;SDS011;63557;52.302;7.964;2023-05-10T05:44:07;16.60;;;11.65;;
27580;SDS011;63557;52.302;7.964;2023-05-10T05:49:08;19.58;;;11.48;;
27580;SDS011;63557;52.302;7.964;2023-05-10T05:54:08;18.80;;;11.80;;
27580;SDS011;63557;52.302;7.964;2023-05-10T05:59:08;14.57;;;11.73;;
27580;SDS011;63557;52.302;7.964;2023-05-10T06:04:09;15.40;;;12.60;;
27580;SDS011;63557;52.302;7.964;2023-05-10T06:09:09;14.20;;;11.38;;
27580;SDS011;63557;52.302;7.964;2023-05-10T06:14:10;13.82;;;10.68;;
27580;SDS011;63557;52.302;7.964;2023-05-10T06:19:10;15.15;;;11.43;;
27580;SDS011;63557;52.302;7.964;2023-05-10T06:24:11;14.67;;;11.10;;
27580;SDS011;63557;52.302;7.964;2023-05-10T06:29:11;16.47;;;11.33;;
27580;SDS011;63557;52.302;7.964;2023-05-10T06:34:11;18.80;;;11.93;;
27580;SDS011;63557;52.302;7.964;2023-05-10T06:39:12;20.60;;;13.80;;
27580;SDS011;63557;52.302;7.964;2023-05-10T06:44:12;23.10;;;14.33;;
27580;SDS011;63557;52.302;7.964;2023-05-10T06:49:13;23.38;;;14.52;;
27580;SDS011;63557;52.302;7.964;2023-05-10T06:54:13;23.35;;;14.40;;
27580;SDS011;63557;52.302;7.964;2023-05-10T06:59:14;21.98;;;14.68;;
27580;SDS011;63557;52.302;7.964;2023-05-10T07:04:16;27.40;;;15.32;;
27580;SDS011;63557;52.302;7.964;2023-05-10T07:09:17;27.83;;;16.60;;
27580;SDS011;63557;52.302;7.964;2023-05-10T07:14:18;26.47;;;17.33;;
27580;SDS011;63557;52.302;7.964;2023-05-10T07:19:18;27.83;;;18.33;;
27580;SDS011;63557;52.302;7.964;2023-05-10T07:24:18;34.67;;;19.13;;
27580;SDS011;63557;52.302;7.964;2023-05-10T07:29:19;38.33;;;22.70;;
27580;SDS011;63557;52.302;7.964;2023-05-10T07:34:19;40.77;;;23.70;;
27580;SDS011;63557;52.302;7.964;2023-05-10T07:39:19;39.42;;;22.60;;
27580;SDS011;63557;52.302;7.964;2023-05-10T07:44:23;41.67;;;24.35;;
27580;SDS011;63557;52.302;7.964;2023-05-10T07:49:23;42.45;;;23.48;;
27580;SDS011;63557;52.302;7.964;2023-05-10T07:54:24;40.35;;;22.92;;
27580;SDS011;63557;52.302;7.964;2023-05-10T07:59:24;43.90;;;23.70;;
27580;SDS011;63557;52.302;7.964;2023-05-10T08:04:25;42.33;;;24.40;;
27580;SDS011;63557;52.302;7.964;2023-05-10T08:09:25;47.42;;;26.27;;
27580;SDS011;63557;52.302;7.964;2023-05-10T08:14:27;47.33;;;26.37;;
27580;SDS011;63557;52.302;7.964;2023-05-10T08:19:28;47.60;;;27.67;;
27580;SDS011;63557;52.302;7.964;2023-05-10T08:24:28;46.13;;;28.93;;
27580;SDS011;63557;52.302;7.964;2023-05-10T08:29:28;48.00;;;28.40;;
27580;SDS011;63557;52.302;7.964;2023-05-10T08:34:29;45.05;;;28.20;;
27580;SDS011;63557;52.302;7.964;2023-05-10T08:39:33;44.78;;;26.08;;
27580;SDS011;63557;52.302;7.964;2023-05-10T08:44:34;47.45;;;27.52;;
27580;SDS011;63557;52.302;7.964;2023-05-10T08:49:36;42.83;;;27.10;;
27580;SDS011;63557;52.302;7.964;2023-05-10T08:54:37;47.42;;;27.48;;
27580;SDS011;63557;52.302;7.964;2023-05-10T08:59:38;40.03;;;24.52;;
27580;SDS011;63557;52.302;7.964;2023-05-10T09:04:39;40.13;;;26.45;;
27580;SDS011;63557;52.302;7.964;2023-05-10T09:09:40;41.17;;;25.30;;
27580;SDS011;63557;52.302;7.964;2023-05-10T09:14:40;37.60;;;23.90;;
27580;SDS011;63557;52.302;7.964;2023-05-10T09:19:41;36.33;;;24.35;;
27580;SDS011;63557;52.302;7.964;2023-05-10T09:24:42;40.03;;;25.37;;
27580;SDS011;63557;52.302;7.964;2023-05-10T09:29:45;43.65;;;26.45;;
27580;SDS011;63557;52.302;7.964;2023-05-10T09:34:45;45.33;;;26.93;;
27580;SDS011;63557;52.302;7.964;2023-05-10T09:39:49;43.13;;;26.95;;
27580;SDS011;63557;52.302;7.964;2023-05-10T09:44:54;43.03;;;26.57;;
27580;SDS011;63557;52.302;7.964;2023-05-10T09:49:58;39.00;;;24.35;;
27580;SDS011;63557;52.302;7.964;2023-05-10T09:55:04;42.53;;;24.33;;
27580;SDS011;63557;52.302;7.964;2023-05-10T10:00:05;35.90;;;22.15;;
27580;SDS011;63557;52.302;7.964;2023-05-10T10:05:14;33.45;;;24.33;;
27580;SDS011;63557;52.302;7.964;2023-05-10T10:10:14;40.22;;;23.95;;
27580;SDS011;63557;52.302;7.964;2023-05-10T10:15:14;39.38;;;24.52;;
27580;SDS011;63557;52.302;7.964;2023-05-10T10:20:16;36.40;;;23.55;;
27580;SDS011;63557;52.302;7.964;2023-05-10T10:25:17;34.05;;;21.70;;
27580;SDS011;63557;52.302;7.964;2023-05-10T10:35:33;32.00;;;21.42;;
27580;SDS011;63557;52.302;7.964;2023-05-10T10:40:34;26.65;;;18.23;;
27580;SDS011;63557;52.302;7.964;2023-05-10T10:45:34;31.88;;;18.98;;
27580;SDS011;63557;52.302;7.964;2023-05-10T10:50:45;28.58;;;17.13;;
27580;SDS011;63557;52.302;7.964;2023-05-10T10:55:46;27.10;;;18.27;;
27580;SDS011;63557;52.302;7.964;2023-05-10T11:00:48;25.63;;;17.20;;
27580;SDS011;63557;52.302;7.964;2023-05-10T11:05:48;32.33;;;17.40;;
27580;SDS011;63557;52.302;7.964;2023-05-10T11:11:12;28.50;;;17.27;;
27580;SDS011;63557;52.302;7.964;2023-05-10T11:16:13;31.13;;;18.98;;
27580;SDS011;63557;52.302;7.964;2023-05-10T11:21:13;28.42;;;18.77;;
27580;SDS011;63557;52.302;7.964;2023-05-10T11:26:15;29.00;;;17.83;;
27580;SDS011;63557;52.302;7.964;2023-05-10T11:31:16;24.60;;;16.73;;
27580;SDS011;63557;52.302;7.964;2023-05-10T11:36:17;28.73;;;18.38;;
27580;SDS011;63557;52.302;7.964;2023-05-10T11:41:18;28.92;;;19.30;;
27580;SDS011;63557;52.302;7.964;2023-05-10T11:46:26;28.88;;;19.65;;
27580;SDS011;63557;52.302;7.964;2023-05-10T11:51:32;25.25;;;17.42;;
27580;SDS011;63557;52.302;7.964;2023-05-10T11:56:32;24.92;;;16.48;;
27580;SDS011;63557;52.302;7.964;2023-05-10T12:01:33;25.23;;;16.42;;
27580;SDS011;63557;52.302;7.964;2023-05-10T12:06:36;26.75;;;16.05;;
27580;SDS011;63557;52.302;7.964;2023-05-10T12:11:37;24.30;;;16.08;;
27580;SDS011;63557;52.302;7.964;2023-05-10T12:16:39;24.90;;;15.95;;
27580;SDS011;63557;52.302;7.964;2023-05-10T12:21:39;20.17;;;13.10;;
27580;SDS011;63557;52.302;7.964;2023-05-10T12:26:41;18.75;;;13.20;;
27580;SDS011;63557;52.302;7.964;2023-05-10T12:31:51;21.33;;;13.80;;
27580;SDS011;63557;52.302;7.964;2023-05-10T12:36:52;23.88;;;14.15;;
27580;SDS011;63557;52.302;7.964;2023-05-10T12:41:52;18.75;;;13.35;;
27580;SDS011;63557;52.302;7.964;2023-05-10T12:46:53;21.03;;;14.00;;
27580;SDS011;63557;52.302;7.964;2023-05-10T12:51:53;16.03;;;12.33;;
27580;SDS011;63557;52.302;7.964;2023-05-10T12:56:53;18.23;;;12.83;;
27580;SDS011;63557;52.302;7.964;2023-05-10T13:01:54;17.88;;;12.88;;
27580;SDS011;63557;52.302;7.964;2023-05-10T13:06:54;18.55;;;13.75;;
27580;SDS011;63557;52.302;7.964;2023-05-10T13:11:58;19.40;;;14.70;;
27580;SDS011;63557;52.302;7.964;2023-05-10T13:16:59;17.93;;;13.73;;
27580;SDS011;63557;52.302;7.964;2023-05-10T13:21:59;17.38;;;13.70;;
27580;SDS011;63557;52.302;7.964;2023-05-10T13:26:59;19.03;;;13.53;;
27580;SDS011;63557;52.302;7.964;2023-05-10T13:32:00;19.47;;;13.37;;
27580;SDS011;63557;52.302;7.964;2023-05-10T13:37:00;23.80;;;13.37;;
27580;SDS011;63557;52.302;7.964;2023-05-10T13:42:01;21.50;;;14.90;;
27580;SDS011;63557;52.302;7.964;2023-05-10T13:47:03;26.25;;;17.17;;
27580;SDS011;63557;52.302;7.964;2023-05-10T13:52:03;20.73;;;14.87;;
27580;SDS011;63557;52.302;7.964;2023-05-10T13:57:06;21.10;;;14.77;;
27580;SDS011;63557;52.302;7.964;2023-05-10T14:02:07;22.27;;;15.20;;
27580;SDS011;63557;52.302;7.964;2023-05-10T14:07:07;19.73;;;13.10;;
27580;SDS011;63557;52.302;7.964;2023-05-10T14:12:08;17.67;;;14.17;;
27580;SDS011;63557;52.302;7.964;2023-05-10T14:17:08;17.37;;;13.07;;
27580;SDS011;63557;52.302;7.964;2023-05-10T14:22:08;19.07;;;12.40;;
27580;SDS011;63557;52.302;7.964;2023-05-10T14:27:09;17.67;;;12.53;;
27580;SDS011;63557;52.302;7.964;2023-05-10T14:32:09;17.07;;;11.87;;
27580;SDS011;63557;52.302;7.964;2023-05-10T14:37:11;16.50;;;11.68;;
27580;SDS011;63557;52.302;7.964;2023-05-10T14:42:11;16.35;;;10.93;;
27580;SDS011;63557;52.302;7.964;2023-05-10T14:47:12;14.00;;;10.63;;
27580;SDS011;63557;52.302;7.964;2023-05-10T14:52:12;12.80;;;10.00;;
27580;SDS011;63557;52.302;7.964;2023-05-10T14:57:14;18.77;;;10.23;;
27580;SDS011;63557;52.302;7.964;2023-05-10T15:02:14;13.80;;;9.37;;
27580;SDS011;63557;52.302;7.964;2023-05-10T15:07:15;13.90;;;9.35;;
27580;SDS011;63557;52.302;7.964;2023-05-10T15:12:17;12.80;;;9.50;;
27580;SDS011;63557;52.302;7.964;2023-05-10T15:17:18;12.45;;;9.50;;
27580;SDS011;63557;52.302;7.964;2023-05-10T15:22:18;11.57;;;8.87;;
27580;SDS011;63557;52.302;7.964;2023-05-10T15:27:19;10.57;;;8.65;;
27580;SDS011;63557;52.302;7.964;2023-05-10T15:32:19;15.53;;;8.10;;
27580;SDS011;63557;52.302;7.964;2023-05-10T15:37:20;9.20;;;7.90;;
27580;SDS011;63557;52.302;7.964;2023-05-10T15:42:20;10.90;;;8.40;;
27580;SDS011;63557;52.302;7.964;2023-05-10T15:47:20;12.07;;;8.43;;
27580;SDS011;63557;52.302;7.964;2023-05-10T15:52:21;11.07;;;7.80;;
27580;SDS011;63557;52.302;7.964;2023-05-10T15:57:22;12.15;;;7.45;;
27580;SDS011;63557;52.302;7.964;2023-05-10T16:02:23;11.07;;;7.10;;
27580;SDS011;63557;52.302;7.964;2023-05-10T16:07:23;10.57;;;7.10;;
27580;SDS011;63557;52.302;7.964;2023-05-10T16:12:23;9.47;;;6.53;;
27580;SDS011;63557;52.302;7.964;2023-05-10T16:17:24;8.97;;;6.60;;
27580;SDS011;63557;52.302;7.964;2023-05-10T16:22:24;14.90;;;7.47;;
27580;SDS011;63557;52.302;7.964;2023-05-10T16:27:27;11.65;;;7.60;;
27580;SDS011;63557;52.302;7.964;2023-05-10T16:32:29;9.63;;;6.95;;
27580;SDS011;63557;52.302;7.964;2023-05-10T16:37:29;9.90;;;7.17;;
27580;SDS011;63557;52.302;7.964;2023-05-10T16:42:30;8.15;;;6.93;;
27580;SDS011;63557;52.302;7.964;2023-05-10T16:47:30;10.13;;;6.80;;
27580;SDS011;63557;52.302;7.964;2023-05-10T16:52:30;11.73;;;6.40;;
27580;SDS011;63557;52.302;7.964;2023-05-10T16:57:31;10.35;;;6.72;;
27580;SDS011;63557;52.302;7.964;2023-05-10T17:02:34;8.32;;;6.03;;
27580;SDS011;63557;52.302;7.964;2023-05-10T17:07:35;10.00;;;6.80;;
27580;SDS011;63557;52.302;7.964;2023-05-10T17:12:35;11.10;;;6.17;;
27580;SDS011;63557;52.302;7.964;2023-05-10T17:17:36;8.80;;;6.80;;
27580;SDS011;63557;52.302;7.964;2023-05-10T17:22:36;7.10;;;5.97;;
27580;SDS011;63557;52.302;7.964;2023-05-10T17:27:36;10.83;;;7.13;;
27580;SDS011;63557;52.302;7.964;2023-05-10T17:32:37;6.97;;;5.90;;
27580;SDS011;63557;52.302;7.964;2023-05-10T17:37:37;11.20;;;6.60;;
27580;SDS011;63557;52.302;7.964;2023-05-10T17:42:38;7.90;;;5.57;;
27580;SDS011;63557;52.302;7.964;2023-05-10T17:47:38;8.60;;;5.85;;
27580;SDS011;63557;52.302;7.964;2023-05-10T17:52:39;8.67;;;6.00;;
27580;SDS011;63557;52.302;7.964;2023-05-10T17:57:39;9.00;;;7.63;;
27580;SDS011;63557;52.302;7.964;2023-05-10T18:02:39;9.23;;;7.40;;
27580;SDS011;63557;52.302;7.964;2023-05-10T18:07:40;9.67;;;6.70;;
27580;SDS011;63557;52.302;7.964;2023-05-10T18:12:40;8.70;;;6.57;;
27580;SDS011;63557;52.302;7.964;2023-05-10T18:17:40;11.83;;;8.20;;
27580;SDS011;63557;52.302;7.964;2023-05-10T18:22:41;11.02;;;8.25;;
27580;SDS011;63557;52.302;7.964;2023-05-10T18:27:42;10.27;;;7.93;;
27580;SDS011;63557;52.302;7.964;2023-05-10T18:32:43;9.23;;;7.47;;
27580;SDS011;63557;52.302;7.964;2023-05-10T18:37:43;12.30;;;8.38;;
27580;SDS011;63557;52.302;7.964;2023-05-10T18:42:43;14.40;;;8.33;;
27580;SDS011;63557;52.302;7.964;2023-05-10T18:47:45;12.32;;;8.20;;
27580;SDS011;63557;52.302;7.964;2023-05-10T18:52:46;10.25;;;7.55;;
27580;SDS011;63557;52.302;7.964;2023-05-10T18:57:46;9.48;;;7.32;;
27580;SDS011;63557;52.302;7.964;2023-05-10T19:02:46;11.48;;;6.90;;
27580;SDS011;63557;52.302;7.964;2023-05-10T19:07:47;12.13;;;7.93;;
27580;SDS011;63557;52.302;7.964;2023-05-10T19:12:47;16.60;;;7.53;;
27580;SDS011;63557;52.302;7.964;2023-05-10T19:17:47;11.13;;;7.63;;
27580;SDS011;63557;52.302;7.964;2023-05-10T19:22:48;10.63;;;7.23;;
27580;SDS011;63557;52.302;7.964;2023-05-10T19:27:49;9.98;;;8.07;;
27580;SDS011;63557;52.302;7.964;2023-05-10T19:32:49;11.25;;;8.10;;
27580;SDS011;63557;52.302;7.964;2023-05-10T19:37:50;9.87;;;6.97;;
27580;SDS011;63557;52.302;7.964;2023-05-10T19:42:50;12.13;;;7.50;;
27580;SDS011;63557;52.302;7.964;2023-05-10T19:47:51;10.07;;;6.87;;
27580;SDS011;63557;52.302;7.964;2023-05-10T19:52:51;13.88;;;9.15;;
27580;SDS011;63557;52.302;7.964;2023-05-10T19:57:51;13.07;;;10.93;;
27580;SDS011;63557;52.302;7.964;2023-05-10T20:02:52;10.07;;;6.97;;
27580;SDS011;63557;52.302;7.964;2023-05-10T20:07:52;8.67;;;6.40;;
27580;SDS011;63557;52.302;7.964;2023-05-10T20:12:52;7.68;;;6.57;;
27580;SDS011;63557;52.302;7.964;2023-05-10T20:17:53;9.20;;;7.65;;
27580;SDS011;63557;52.302;7.964;2023-05-10T20:22:54;10.45;;;7.07;;
27580;SDS011;63557;52.302;7.964;2023-05-10T20:27:54;9.93;;;8.37;;
27580;SDS011;63557;52.302;7.964;2023-05-10T20:32:54;16.37;;;10.00;;
27580;SDS011;63557;52.302;7.964;2023-05-10T20:37:55;14.25;;;9.52;;
27580;SDS011;63557;52.302;7.964;2023-05-10T20:42:55;10.20;;;8.23;;
27580;SDS011;63557;52.302;7.964;2023-05-10T20:47:55;13.03;;;8.13;;
27580;SDS011;63557;52.302;7.964;2023-05-10T20:52:56;10.80;;;7.90;;
27580;SDS011;63557;52.302;7.964;2023-05-10T20:57:57;10.40;;;8.02;;
27580;SDS011;63557;52.302;7.964;2023-05-10T21:02:57;9.70;;;8.50;;
27580;SDS011;63557;52.302;7.964;2023-05-10T21:07:57;9.93;;;7.97;;
27580;SDS011;63557;52.302;7.964;2023-05-10T21:12:58;13.90;;;10.15;;
27580;SDS011;63557;52.302;7.964;2023-05-10T21:17:58;12.77;;;9.45;;
27580;SDS011;63557;52.302;7.964;2023-05-10T21:22:59;13.32;;;9.43;;
27580;SDS011;63557;52.302;7.964;2023-05-10T21:27:59;14.80;;;9.73;;
27580;SDS011;63557;52.302;7.964;2023-05-10T21:33:00;16.30;;;10.17;;
27580;SDS011;63557;52.302;7.964;2023-05-10T21:38:01;13.45;;;10.20;;
27580;SDS011;63557;52.302;7.964;2023-05-10T21:43:01;13.77;;;10.57;;
27580;SDS011;63557;52.302;7.964;2023-05-10T21:48:02;13.23;;;10.90;;
27580;SDS011;63557;52.302;7.964;2023-05-10T21:53:02;16.30;;;10.35;;
27580;SDS011;63557;52.302;7.964;2023-05-10T21:58:03;15.75;;;12.02;;
27580;SDS011;63557;52.302;7.964;2023-05-10T22:03:03;18.83;;;10.50;;
27580;SDS011;63557;52.302;7.964;2023-05-10T22:08:04;11.77;;;9.80;;
27580;SDS011;63557;52.302;7.964;2023-05-10T22:13:05;12.40;;;9.02;;
27580;SDS011;63557;52.302;7.964;2023-05-10T22:18:05;13.27;;;6.93;;
27580;SDS011;63557;52.302;7.964;2023-05-10T22:23:05;12.57;;;9.67;;
27580;SDS011;63557;52.302;7.964;2023-05-10T22:28:06;16.33;;;12.53;;
27580;SDS011;63557;52.302;7.964;2023-05-10T22:33:07;16.40;;;12.85;;
27580;SDS011;63557;52.302;7.964;2023-05-10T22:38:07;20.37;;;12.60;;
27580;SDS011;63557;52.302;7.964;2023-05-10T22:43:07;15.33;;;11.33;;
27580;SDS011;63557;52.302;7.964;2023-05-10T22:48:08;14.67;;;12.73;;
27580;SDS011;63557;52.302;7.964;2023-05-10T22:53:08;18.13;;;12.30;;
27580;SDS011;63557;52.302;7.964;2023-05-10T22:58:09;16.33;;;12.23;;
27580;SDS011;63557;52.302;7.964;2023-05-10T23:03:10;17.90;;;11.00;;
27580;SDS011;63557;52.302;7.964;2023-05-10T23:08:10;13.23;;;10.80;;
27580;SDS011;63557;52.302;7.964;2023-05-10T23:13:11;15.52;;;11.00;;
27580;SDS011;63557;52.302;7.964;2023-05-10T23:18:11;12.37;;;9.13;;
27580;SDS011;63557;52.302;7.964;2023-05-10T23:23:12;14.50;;;10.60;;
27580;SDS011;63557;52.302;7.964;2023-05-10T23:28:12;19.80;;;13.00;;
27580;SDS011;63557;52.302;7.964;2023-05-10T23:33:12;14.07;;;11.05;;
27580;SDS011;63557;52.302;7.964;2023-05-10T23:38:13;16.02;;;10.93;;
27580;SDS011;63557;52.302;7.964;2023-05-10T23:43:13;19.87;;;12.13;;
27580;SDS011;63557;52.302;7.964;2023-05-10T23:48:15;25.58;;;15.65;;
27580;SDS011;63557;52.302;7.964;2023-05-10T23:53:15;25.87;;;15.97;;
27580;SDS011;63557;52.302;7.964;2023-05-10T23:58:15;29.37;;;16.67;;
